FTTA

Sarh Airport

Sarh, Chad
METAR FTTA 181600Z 00000KT CAVOK 35/13 Q1008
Observed Flight Rules
Dec-18 @ 16:00 UTC (47 minutes ago) Visual Flight Rules
Wind Visibility Clouds
Calm 10,000+ meters
  • Clear skies
Temperatures Readings
Current 35°C / 95°F
Dewpoint 13°C / 55°F
Humidity 26%
Altimeter 29.76" Hg
Pressure 1008 hPa
Elevation 365
METAR FTTA 181600Z 00000KT CAVOK 35/13 Q1008
Observed Flight Rules
Dec-18 @ 16:00 UTC
(47 minutes ago)
VFR
Wind Visibility
Calm 10,000+ meters
Clouds
  • Clear skies
Temperature Dewpoint
35°C / 95°F 13°C / 55°F
Humidity Altimeter Pressure
26% 29.76" Hg 1008 hPa